3 – eServices

Baggage tracing
Cargo tracing
Weather
  • METAR

    EFMA 110920Z AUTO 19007KT 140V210 CAVOK 07/M03 Q1021

    EFTU 110920Z AUTO 24006KT 180V320 CAVOK 08/M04 Q1021

    EFHK 110920Z 24011KT 9999 FEW030 08/M01 Q1022 NOSIG

    ESSA 110920Z 19007KT 140V220 CAVOK 08/M03 Q1019 R88/09//95 NOSIG

    ESSB 110920Z 15008KT 100V190 CAVOK 09/M04 Q1020

  • TAF n/a

Flightradar24